sensor_id;sensor_type;location;lat;lon;timestamp;pressure;altitude;pressure_sealevel;temperature;humidity
80509;BME280;69838;52.602;13.434;2024-03-08T00:00:17;101796.06;;;-3.93;100.00
80509;BME280;69838;52.602;13.434;2024-03-08T00:01:04;101791.81;;;-3.88;100.00
80509;BME280;69838;52.602;13.434;2024-03-08T00:01:49;101791.59;;;-3.96;100.00
80509;BME280;69838;52.602;13.434;2024-03-08T00:02:35;101796.06;;;-3.93;100.00
80509;BME280;69838;52.602;13.434;2024-03-08T00:03:22;101803.22;;;-3.89;100.00
80509;BME280;69838;52.602;13.434;2024-03-08T00:04:08;101797.97;;;-3.89;100.00
80509;BME280;69838;52.602;13.434;2024-03-08T00:04:54;101795.50;;;-3.81;100.00
80509;BME280;69838;52.602;13.434;2024-03-08T00:05:40;101793.59;;;-3.87;100.00
80509;BME280;69838;52.602;13.434;2024-03-08T00:06:25;101789.84;;;-3.95;100.00
80509;BME280;69838;52.602;13.434;2024-03-08T00:07:12;101790.63;;;-3.99;100.00
80509;BME280;69838;52.602;13.434;2024-03-08T00:07:58;101790.63;;;-3.99;100.00
80509;BME280;69838;52.602;13.434;2024-03-08T00:08:45;101799.38;;;-4.00;100.00
80509;BME280;69838;52.602;13.434;2024-03-08T00:09:31;101791.41;;;-4.02;100.00
80509;BME280;69838;52.602;13.434;2024-03-08T00:10:17;101794.84;;;-4.06;100.00
80509;BME280;69838;52.602;13.434;2024-03-08T00:11:02;101799.22;;;-4.07;100.00
80509;BME280;69838;52.602;13.434;2024-03-08T00:11:49;101790.38;;;-4.09;100.00
80509;BME280;69838;52.602;13.434;2024-03-08T00:12:35;101793.13;;;-4.04;100.00
80509;BME280;69838;52.602;13.434;2024-03-08T00:13:20;101796.50;;;-4.10;100.00
80509;BME280;69838;52.602;13.434;2024-03-08T00:14:07;101800.94;;;-4.09;100.00
80509;BME280;69838;52.602;13.434;2024-03-08T00:14:54;101788.47;;;-4.13;100.00
80509;BME280;69838;52.602;13.434;2024-03-08T00:15:39;101799.03;;;-4.13;100.00
80509;BME280;69838;52.602;13.434;2024-03-08T00:16:26;101795.56;;;-4.12;100.00
80509;BME280;69838;52.602;13.434;2024-03-08T00:17:12;101798.19;;;-4.12;100.00
80509;BME280;69838;52.602;13.434;2024-03-08T00:17:58;101790.28;;;-4.12;100.00
80509;BME280;69838;52.602;13.434;2024-03-08T00:18:44;101790.53;;;-4.03;100.00
80509;BME280;69838;52.602;13.434;2024-03-08T00:19:30;101794.03;;;-4.04;100.00
80509;BME280;69838;52.602;13.434;2024-03-08T00:20:16;101798.25;;;-4.10;100.00
80509;BME280;69838;52.602;13.434;2024-03-08T00:21:03;101789.41;;;-4.12;100.00
80509;BME280;69838;52.602;13.434;2024-03-08T00:21:49;101791.06;;;-4.16;100.00
80509;BME280;69838;52.602;13.434;2024-03-08T00:22:35;101786.53;;;-4.20;100.00
80509;BME280;69838;52.602;13.434;2024-03-08T00:23:22;101782.84;;;-4.27;100.00
80509;BME280;69838;52.602;13.434;2024-03-08T00:24:08;101790.03;;;-4.21;100.00
80509;BME280;69838;52.602;13.434;2024-03-08T00:24:54;101790.97;;;-4.19;100.00
80509;BME280;69838;52.602;13.434;2024-03-08T00:25:40;101789.16;;;-4.22;100.00
80509;BME280;69838;52.602;13.434;2024-03-08T00:26:27;101789.22;;;-4.18;100.00
80509;BME280;69838;52.602;13.434;2024-03-08T00:27:14;101788.31;;;-4.19;100.00
80509;BME280;69838;52.602;13.434;2024-03-08T00:28:00;101792.09;;;-4.11;100.00
80509;BME280;69838;52.602;13.434;2024-03-08T00:28:47;101789.25;;;-4.17;100.00
80509;BME280;69838;52.602;13.434;2024-03-08T00:29:33;101789.22;;;-4.18;100.00
80509;BME280;69838;52.602;13.434;2024-03-08T00:30:20;101792.00;;;-4.14;100.00
80509;BME280;69838;52.602;13.434;2024-03-08T00:31:08;101790.34;;;-4.10;100.00
80509;BME280;69838;52.602;13.434;2024-03-08T00:31:53;101796.44;;;-4.11;100.00
80509;BME280;69838;52.602;13.434;2024-03-08T00:32:38;101793.75;;;-4.13;100.00
80509;BME280;69838;52.602;13.434;2024-03-08T00:33:25;101791.00;;;-4.17;100.00
80509;BME280;69838;52.602;13.434;2024-03-08T00:34:11;101796.19;;;-4.20;100.00
80509;BME280;69838;52.602;13.434;2024-03-08T00:34:57;101789.94;;;-4.24;100.00
80509;BME280;69838;52.602;13.434;2024-03-08T00:35:43;101798.00;;;-4.19;100.00
80509;BME280;69838;52.602;13.434;2024-03-08T00:36:29;101799.66;;;-4.23;100.00
80509;BME280;69838;52.602;13.434;2024-03-08T00:37:15;101795.34;;;-4.19;100.00
80509;BME280;69838;52.602;13.434;2024-03-08T00:38:01;101793.69;;;-4.16;100.00
80509;BME280;69838;52.602;13.434;2024-03-08T00:38:47;101792.66;;;-4.21;100.00
80509;BME280;69838;52.602;13.434;2024-03-08T00:39:33;101793.44;;;-4.25;100.00
80509;BME280;69838;52.602;13.434;2024-03-08T00:40:19;101796.13;;;-4.22;100.00
80509;BME280;69838;52.602;13.434;2024-03-08T00:41:04;101795.31;;;-4.21;100.00
80509;BME280;69838;52.602;13.434;2024-03-08T00:41:50;101786.53;;;-4.20;100.00
80509;BME280;69838;52.602;13.434;2024-03-08T00:42:36;101789.16;;;-4.20;100.00
80509;BME280;69838;52.602;13.434;2024-03-08T00:43:23;101792.56;;;-4.24;100.00
80509;BME280;69838;52.602;13.434;2024-03-08T00:44:09;101795.19;;;-4.24;100.00
80509;BME280;69838;52.602;13.434;2024-03-08T00:44:55;101793.34;;;-4.28;100.00
80509;BME280;69838;52.602;13.434;2024-03-08T00:45:43;101787.91;;;-4.33;100.00
80509;BME280;69838;52.602;13.434;2024-03-08T00:46:29;101787.81;;;-4.37;100.00
80509;BME280;69838;52.602;13.434;2024-03-08T00:47:16;101787.88;;;-4.34;100.00
80509;BME280;69838;52.602;13.434;2024-03-08T00:48:02;101787.81;;;-4.37;100.00
80509;BME280;69838;52.602;13.434;2024-03-08T00:48:48;101789.50;;;-4.39;100.00
80509;BME280;69838;52.602;13.434;2024-03-08T00:49:34;101786.69;;;-4.46;100.00
80509;BME280;69838;52.602;13.434;2024-03-08T00:50:21;101783.38;;;-4.38;100.00
80509;BME280;69838;52.602;13.434;2024-03-08T00:51:08;101787.72;;;-4.41;100.00
80509;BME280;69838;52.602;13.434;2024-03-08T00:51:53;101783.38;;;-4.38;100.00
80509;BME280;69838;52.602;13.434;2024-03-08T00:52:39;101784.97;;;-4.44;100.00
80509;BME280;69838;52.602;13.434;2024-03-08T00:53:24;101783.06;;;-4.49;100.00
80509;BME280;69838;52.602;13.434;2024-03-08T00:54:11;101777.88;;;-4.46;100.00
80509;BME280;69838;52.602;13.434;2024-03-08T00:54:56;101780.47;;;-4.48;100.00
80509;BME280;69838;52.602;13.434;2024-03-08T00:55:43;101782.44;;;-4.41;100.00
80509;BME280;69838;52.602;13.434;2024-03-08T00:56:31;101778.03;;;-4.40;100.00
80509;BME280;69838;52.602;13.434;2024-03-08T00:57:19;101785.84;;;-4.45;100.00
80509;BME280;69838;52.602;13.434;2024-03-08T00:58:04;101778.75;;;-4.46;100.00
80509;BME280;69838;52.602;13.434;2024-03-08T00:58:50;101776.91;;;-4.50;100.00
80509;BME280;69838;52.602;13.434;2024-03-08T00:59:37;101784.31;;;-4.36;100.00
80509;BME280;69838;52.602;13.434;2024-03-08T01:00:23;101774.69;;;-4.34;100.00
80509;BME280;69838;52.602;13.434;2024-03-08T01:01:12;101776.28;;;-4.41;100.00
80509;BME280;69838;52.602;13.434;2024-03-08T01:02:02;101768.47;;;-4.36;100.00
80509;BME280;69838;52.602;13.434;2024-03-08T01:02:47;101771.88;;;-4.41;100.00
80509;BME280;69838;52.602;13.434;2024-03-08T01:03:34;101772.16;;;-4.31;100.00
80509;BME280;69838;52.602;13.434;2024-03-08T01:04:19;101775.56;;;-4.35;100.00
80509;BME280;69838;52.602;13.434;2024-03-08T01:05:07;101774.47;;;-4.42;100.00
80509;BME280;69838;52.602;13.434;2024-03-08T01:05:53;101772.72;;;-4.43;100.00
80509;BME280;69838;52.602;13.434;2024-03-08T01:06:39;101777.25;;;-4.37;100.00
80509;BME280;69838;52.602;13.434;2024-03-08T01:07:24;101767.44;;;-4.42;100.00
80509;BME280;69838;52.602;13.434;2024-03-08T01:08:11;101775.34;;;-4.42;100.00
80509;BME280;69838;52.602;13.434;2024-03-08T01:08:56;101768.31;;;-4.43;100.00
80509;BME280;69838;52.602;13.434;2024-03-08T01:09:43;101769.25;;;-4.41;100.00
80509;BME280;69838;52.602;13.434;2024-03-08T01:10:28;101755.72;;;-4.53;100.00
80509;BME280;69838;52.602;13.434;2024-03-08T01:11:14;101766.44;;;-4.47;100.00
80509;BME280;69838;52.602;13.434;2024-03-08T01:12:00;101759.38;;;-4.48;100.00
80509;BME280;69838;52.602;13.434;2024-03-08T01:12:46;101762.84;;;-4.49;100.00
80509;BME280;69838;52.602;13.434;2024-03-08T01:13:31;101759.53;;;-4.42;100.00
80509;BME280;69838;52.602;13.434;2024-03-08T01:14:18;101755.91;;;-4.47;100.00
80509;BME280;69838;52.602;13.434;2024-03-08T01:15:04;101756.84;;;-4.45;100.00
80509;BME280;69838;52.602;13.434;2024-03-08T01:15:50;101752.41;;;-4.46;100.00
80509;BME280;69838;52.602;13.434;2024-03-08T01:16:37;101757.09;;;-4.35;100.00
80509;BME280;69838;52.602;13.434;2024-03-08T01:17:23;101754.28;;;-4.42;100.00
80509;BME280;69838;52.602;13.434;2024-03-08T01:18:09;101758.56;;;-4.45;100.00
80509;BME280;69838;52.602;13.434;2024-03-08T01:18:55;101751.53;;;-4.46;100.00
80509;BME280;69838;52.602;13.434;2024-03-08T01:19:41;101749.59;;;-4.52;100.00
80509;BME280;69838;52.602;13.434;2024-03-08T01:20:26;101750.44;;;-4.53;100.00
80509;BME280;69838;52.602;13.434;2024-03-08T01:21:13;101757.78;;;-4.43;100.00
80509;BME280;69838;52.602;13.434;2024-03-08T01:21:58;101752.31;;;-4.49;100.00
80509;BME280;69838;52.602;13.434;2024-03-08T01:22:44;101754.00;;;-4.51;100.00
80509;BME280;69838;52.602;13.434;2024-03-08T01:23:30;101750.53;;;-4.50;100.00
80509;BME280;69838;52.602;13.434;2024-03-08T01:24:16;101745.16;;;-4.53;100.00
80509;BME280;69838;52.602;13.434;2024-03-08T01:25:02;101752.03;;;-4.58;100.00
80509;BME280;69838;52.602;13.434;2024-03-08T01:25:49;101750.28;;;-4.59;100.00
80509;BME280;69838;52.602;13.434;2024-03-08T01:26:41;101746.59;;;-4.64;100.00
80509;BME280;69838;52.602;13.434;2024-03-08T01:27:28;101744.75;;;-4.68;100.00
80509;BME280;69838;52.602;13.434;2024-03-08T01:28:13;101742.84;;;-4.72;100.00
80509;BME280;69838;52.602;13.434;2024-03-08T01:28:58;101741.22;;;-4.67;100.00
80509;BME280;69838;52.602;13.434;2024-03-08T01:29:45;101740.19;;;-4.72;100.00
80509;BME280;69838;52.602;13.434;2024-03-08T01:30:30;101740.41;;;-4.66;100.00
80509;BME280;69838;52.602;13.434;2024-03-08T01:31:17;101740.34;;;-4.68;100.00
80509;BME280;69838;52.602;13.434;2024-03-08T01:32:05;101738.81;;;-4.61;100.00
80509;BME280;69838;52.602;13.434;2024-03-08T01:32:51;101739.47;;;-4.68;100.00
80509;BME280;69838;52.602;13.434;2024-03-08T01:33:37;101739.38;;;-4.71;100.00
80509;BME280;69838;52.602;13.434;2024-03-08T01:34:23;101744.47;;;-4.76;100.00
80509;BME280;69838;52.602;13.434;2024-03-08T01:35:08;101746.13;;;-4.80;100.00
80509;BME280;69838;52.602;13.434;2024-03-08T01:35:54;101738.22;;;-4.80;100.00
80509;BME280;69838;52.602;13.434;2024-03-08T01:36:42;101735.59;;;-4.80;100.00
80509;BME280;69838;52.602;13.434;2024-03-08T01:37:27;101738.28;;;-4.78;100.00
80509;BME280;69838;52.602;13.434;2024-03-08T01:38:14;101732.03;;;-4.82;100.00
80509;BME280;69838;52.602;13.434;2024-03-08T01:39:01;101737.28;;;-4.82;100.00
80509;BME280;69838;52.602;13.434;2024-03-08T01:39:46;101744.25;;;-4.84;100.00
80509;BME280;69838;52.602;13.434;2024-03-08T01:40:32;101738.13;;;-4.84;100.00
80509;BME280;69838;52.602;13.434;2024-03-08T01:41:18;101742.44;;;-4.86;100.00
80509;BME280;69838;52.602;13.434;2024-03-08T01:42:04;101730.44;;;-4.76;100.00
80509;BME280;69838;52.602;13.434;2024-03-08T01:42:50;101733.91;;;-4.77;100.00
80509;BME280;69838;52.602;13.434;2024-03-08T01:43:36;101730.25;;;-4.83;100.00
80509;BME280;69838;52.602;13.434;2024-03-08T01:44:22;101733.72;;;-4.84;100.00
80509;BME280;69838;52.602;13.434;2024-03-08T01:45:08;101730.91;;;-4.90;100.00
80509;BME280;69838;52.602;13.434;2024-03-08T01:45:55;101723.81;;;-4.92;100.00
80509;BME280;69838;52.602;13.434;2024-03-08T01:46:43;101722.81;;;-4.96;100.00
80509;BME280;69838;52.602;13.434;2024-03-08T01:47:31;101727.31;;;-4.92;100.00
80509;BME280;69838;52.602;13.434;2024-03-08T01:48:18;101727.31;;;-4.93;100.00
80509;BME280;69838;52.602;13.434;2024-03-08T01:49:04;101726.31;;;-4.97;100.00
80509;BME280;69838;52.602;13.434;2024-03-08T01:49:49;101725.50;;;-4.94;100.00
80509;BME280;69838;52.602;13.434;2024-03-08T01:50:36;101728.97;;;-4.95;100.00
80509;BME280;69838;52.602;13.434;2024-03-08T01:51:21;101730.66;;;-4.97;100.00
80509;BME280;69838;52.602;13.434;2024-03-08T01:52:07;101721.78;;;-5.01;100.00
80509;BME280;69838;52.602;13.434;2024-03-08T01:52:53;101720.34;;;-4.91;100.00
80509;BME280;69838;52.602;13.434;2024-03-08T01:53:41;101727.16;;;-4.98;100.00
80509;BME280;69838;52.602;13.434;2024-03-08T01:54:28;101721.13;;;-4.94;100.00
80509;BME280;69838;52.602;13.434;2024-03-08T01:55:15;101714.09;;;-4.95;100.00
80509;BME280;69838;52.602;13.434;2024-03-08T01:56:02;101713.16;;;-4.97;100.00
80509;BME280;69838;52.602;13.434;2024-03-08T01:56:48;101716.78;;;-4.92;100.00
80509;BME280;69838;52.602;13.434;2024-03-08T01:57:34;101719.63;;;-4.86;100.00
80509;BME280;69838;52.602;13.434;2024-03-08T01:58:20;101717.16;;;-4.80;100.00
80509;BME280;69838;52.602;13.434;2024-03-08T01:59:07;101718.25;;;-4.73;100.00
80509;BME280;69838;52.602;13.434;2024-03-08T01:59:53;101721.50;;;-4.82;100.00
80509;BME280;69838;52.602;13.434;2024-03-08T02:00:42;101704.69;;;-4.85;100.00
80509;BME280;69838;52.602;13.434;2024-03-08T02:01:28;101716.41;;;-4.75;100.00
80509;BME280;69838;52.602;13.434;2024-03-08T02:02:17;101716.13;;;-4.85;100.00
80509;BME280;69838;52.602;13.434;2024-03-08T02:03:04;101711.66;;;-4.87;100.00
80509;BME280;69838;52.602;13.434;2024-03-08T02:03:50;101710.59;;;-4.94;100.00
80509;BME280;69838;52.602;13.434;2024-03-08T02:04:37;101709.91;;;-4.87;100.00
80509;BME280;69838;52.602;13.434;2024-03-08T02:05:24;101714.53;;;-4.80;100.00
80509;BME280;69838;52.602;13.434;2024-03-08T02:06:11;101712.91;;;-4.74;100.00
80509;BME280;69838;52.602;13.434;2024-03-08T02:06:58;101709.41;;;-4.75;100.00
80509;BME280;69838;52.602;13.434;2024-03-08T02:07:44;101705.69;;;-4.82;100.00
80509;BME280;69838;52.602;13.434;2024-03-08T02:08:29;101709.91;;;-4.87;100.00
80509;BME280;69838;52.602;13.434;2024-03-08T02:09:16;101714.47;;;-4.81;100.00
80509;BME280;69838;52.602;13.434;2024-03-08T02:10:02;101704.59;;;-4.88;100.00
80509;BME280;69838;52.602;13.434;2024-03-08T02:10:48;101706.28;;;-4.90;100.00
80509;BME280;69838;52.602;13.434;2024-03-08T02:11:36;101706.41;;;-4.87;100.00
80509;BME280;69838;52.602;13.434;2024-03-08T02:12:21;101702.69;;;-4.94;100.00
80509;BME280;69838;52.602;13.434;2024-03-08T02:13:07;101700.00;;;-4.95;100.00
80509;BME280;69838;52.602;13.434;2024-03-08T02:13:53;101695.66;;;-4.95;100.00
80509;BME280;69838;52.602;13.434;2024-03-08T02:14:39;101705.41;;;-4.91;100.00
80509;BME280;69838;52.602;13.434;2024-03-08T02:15:25;101700.03;;;-4.94;100.00
80509;BME280;69838;52.602;13.434;2024-03-08T02:16:12;101700.03;;;-4.94;100.00
80509;BME280;69838;52.602;13.434;2024-03-08T02:17:00;101701.84;;;-4.93;100.00
80509;BME280;69838;52.602;13.434;2024-03-08T02:17:45;101699.16;;;-4.94;100.00
80509;BME280;69838;52.602;13.434;2024-03-08T02:18:34;101704.59;;;-4.90;100.00
80509;BME280;69838;52.602;13.434;2024-03-08T02:19:19;101702.88;;;-4.88;100.00
80509;BME280;69838;52.602;13.434;2024-03-08T02:20:05;101695.59;;;-4.96;100.00
80509;BME280;69838;52.602;13.434;2024-03-08T02:20:56;101694.59;;;-5.00;100.00
80509;BME280;69838;52.602;13.434;2024-03-08T02:21:42;101694.59;;;-5.00;100.00
80509;BME280;69838;52.602;13.434;2024-03-08T02:22:32;101698.00;;;-5.04;100.00
80509;BME280;69838;52.602;13.434;2024-03-08T02:23:18;101694.41;;;-5.06;100.00
80509;BME280;69838;52.602;13.434;2024-03-08T02:24:04;101690.22;;;-5.00;100.00
80509;BME280;69838;52.602;13.434;2024-03-08T02:24:50;101701.13;;;-4.87;100.00
80509;BME280;69838;52.602;13.434;2024-03-08T02:25:36;101694.22;;;-4.84;100.00
80509;BME280;69838;52.602;13.434;2024-03-08T02:26:22;101698.53;;;-4.86;100.00
80509;BME280;69838;52.602;13.434;2024-03-08T02:27:08;101694.97;;;-4.88;100.00
80509;BME280;69838;52.602;13.434;2024-03-08T02:27:57;101694.94;;;-4.89;100.00
80509;BME280;69838;52.602;13.434;2024-03-08T02:28:43;101694.78;;;-4.94;100.00
80509;BME280;69838;52.602;13.434;2024-03-08T02:29:31;101696.47;;;-4.96;100.00
80509;BME280;69838;52.602;13.434;2024-03-08T02:30:18;101693.69;;;-5.02;100.00
80509;BME280;69838;52.602;13.434;2024-03-08T02:31:03;101687.53;;;-5.01;100.00
80509;BME280;69838;52.602;13.434;2024-03-08T02:31:53;101688.25;;;-5.07;100.00
80509;BME280;69838;52.602;13.434;2024-03-08T02:32:38;101691.69;;;-5.09;100.00
80509;BME280;69838;52.602;13.434;2024-03-08T02:33:24;101691.59;;;-5.12;100.00
80509;BME280;69838;52.602;13.434;2024-03-08T02:34:11;101697.09;;;-5.05;100.00
80509;BME280;69838;52.602;13.434;2024-03-08T02:34:56;101691.78;;;-5.06;100.00
80509;BME280;69838;52.602;13.434;2024-03-08T02:35:42;101687.28;;;-5.10;100.00
80509;BME280;69838;52.602;13.434;2024-03-08T02:36:32;101689.44;;;-4.97;100.00
80509;BME280;69838;52.602;13.434;2024-03-08T02:37:20;101686.66;;;-5.02;100.00
80509;BME280;69838;52.602;13.434;2024-03-08T02:38:05;101688.19;;;-5.08;100.00
80509;BME280;69838;52.602;13.434;2024-03-08T02:38:51;101683.81;;;-5.09;100.00
80509;BME280;69838;52.602;13.434;2024-03-08T02:39:37;101683.69;;;-5.12;100.00
80509;BME280;69838;52.602;13.434;2024-03-08T02:40:22;101685.41;;;-5.14;100.00
80509;BME280;69838;52.602;13.434;2024-03-08T02:41:09;101681.84;;;-5.16;100.00
80509;BME280;69838;52.602;13.434;2024-03-08T02:41:55;101688.91;;;-5.14;100.00
80509;BME280;69838;52.602;13.434;2024-03-08T02:42:41;101691.50;;;-5.15;100.00
80509;BME280;69838;52.602;13.434;2024-03-08T02:43:28;101687.00;;;-5.20;100.00
80509;BME280;69838;52.602;13.434;2024-03-08T02:44:13;101689.63;;;-5.20;100.00
80509;BME280;69838;52.602;13.434;2024-03-08T02:45:00;101689.78;;;-5.15;100.00
80509;BME280;69838;52.602;13.434;2024-03-08T02:45:46;101684.50;;;-5.15;100.00
80509;BME280;69838;52.602;13.434;2024-03-08T02:46:31;101685.41;;;-5.14;100.00
80509;BME280;69838;52.602;13.434;2024-03-08T02:47:18;101686.28;;;-5.14;100.00
80509;BME280;69838;52.602;13.434;2024-03-08T02:48:04;101687.09;;;-5.16;100.00
80509;BME280;69838;52.602;13.434;2024-03-08T02:48:51;101682.56;;;-5.21;100.00
80509;BME280;69838;52.602;13.434;2024-03-08T02:49:37;101680.78;;;-5.22;100.00
80509;BME280;69838;52.602;13.434;2024-03-08T02:50:22;101679.81;;;-5.25;100.00
80509;BME280;69838;52.602;13.434;2024-03-08T02:51:10;101679.75;;;-5.27;100.00
80509;BME280;69838;52.602;13.434;2024-03-08T02:51:57;101668.19;;;-5.32;100.00
80509;BME280;69838;52.602;13.434;2024-03-08T02:52:43;101678.72;;;-5.32;100.00
80509;BME280;69838;52.602;13.434;2024-03-08T02:53:31;101676.19;;;-5.29;100.00
80509;BME280;69838;52.602;13.434;2024-03-08T02:54:17;101679.84;;;-5.24;100.00
80509;BME280;69838;52.602;13.434;2024-03-08T02:55:03;101672.06;;;-5.19;100.00
80509;BME280;69838;52.602;13.434;2024-03-08T02:55:51;101671.09;;;-5.23;100.00
80509;BME280;69838;52.602;13.434;2024-03-08T02:56:36;101678.25;;;-5.19;100.00
80509;BME280;69838;52.602;13.434;2024-03-08T02:57:22;101678.28;;;-5.17;100.00
80509;BME280;69838;52.602;13.434;2024-03-08T02:58:08;101671.09;;;-5.23;100.00
80509;BME280;69838;52.602;13.434;2024-03-08T02:58:55;101673.72;;;-5.23;100.00
80509;BME280;69838;52.602;13.434;2024-03-08T02:59:40;101672.69;;;-5.28;100.00
80509;BME280;69838;52.602;13.434;2024-03-08T03:00:27;101668.22;;;-5.30;100.00
80509;BME280;69838;52.602;13.434;2024-03-08T03:01:12;101670.00;;;-5.29;100.00
80509;BME280;69838;52.602;13.434;2024-03-08T03:01:57;101667.28;;;-5.32;100.00
80509;BME280;69838;52.602;13.434;2024-03-08T03:02:44;101675.97;;;-5.35;100.00
80509;BME280;69838;52.602;13.434;2024-03-08T03:03:29;101672.50;;;-5.34;100.00
80509;BME280;69838;52.602;13.434;2024-03-08T03:04:15;101669.97;;;-5.31;100.00
80509;BME280;69838;52.602;13.434;2024-03-08T03:05:01;101670.72;;;-5.35;100.00
80509;BME280;69838;52.602;13.434;2024-03-08T03:05:50;101674.59;;;-5.24;100.00
80509;BME280;69838;52.602;13.434;2024-03-08T03:06:36;101671.91;;;-5.25;100.00
80509;BME280;69838;52.602;13.434;2024-03-08T03:07:23;101672.69;;;-5.28;100.00
80509;BME280;69838;52.602;13.434;2024-03-08T03:08:11;101672.78;;;-5.25;100.00
80509;BME280;69838;52.602;13.434;2024-03-08T03:08:57;101678.16;;;-5.22;100.00
80509;BME280;69838;52.602;13.434;2024-03-08T03:09:43;101674.00;;;-5.13;100.00
80509;BME280;69838;52.602;13.434;2024-03-08T03:10:28;101665.94;;;-5.20;100.00
80509;BME280;69838;52.602;13.434;2024-03-08T03:11:14;101666.75;;;-5.21;100.00
80509;BME280;69838;52.602;13.434;2024-03-08T03:12:00;101672.13;;;-5.18;100.00
80509;BME280;69838;52.602;13.434;2024-03-08T03:12:46;101673.97;;;-5.15;100.00
80509;BME280;69838;52.602;13.434;2024-03-08T03:13:31;101671.28;;;-5.16;100.00
80509;BME280;69838;52.602;13.434;2024-03-08T03:14:18;101671.28;;;-5.16;100.00
80509;BME280;69838;52.602;13.434;2024-03-08T03:15:04;101668.00;;;-5.09;100.00
80509;BME280;69838;52.602;13.434;2024-03-08T03:15:52;101675.84;;;-5.11;100.00
80509;BME280;69838;52.602;13.434;2024-03-08T03:16:38;101668.78;;;-5.12;100.00
80509;BME280;69838;52.602;13.434;2024-03-08T03:17:23;101673.06;;;-5.15;100.00
80509;BME280;69838;52.602;13.434;2024-03-08T03:18:09;101670.25;;;-5.22;100.00
80509;BME280;69838;52.602;13.434;2024-03-08T03:18:56;101667.38;;;-5.29;100.00
80509;BME280;69838;52.602;13.434;2024-03-08T03:19:44;101670.91;;;-5.29;100.00
80509;BME280;69838;52.602;13.434;2024-03-08T03:20:30;101671.81;;;-5.28;100.00
80509;BME280;69838;52.602;13.434;2024-03-08T03:21:18;101676.28;;;-5.26;100.00
80509;BME280;69838;52.602;13.434;2024-03-08T03:22:04;101676.88;;;-5.34;100.00
80509;BME280;69838;52.602;13.434;2024-03-08T03:22:52;101676.06;;;-5.32;100.00
80509;BME280;69838;52.602;13.434;2024-03-08T03:23:39;101662.91;;;-5.32;100.00
80509;BME280;69838;52.602;13.434;2024-03-08T03:24:25;101672.63;;;-5.31;100.00
80509;BME280;69838;52.602;13.434;2024-03-08T03:25:10;101671.97;;;-5.24;100.00
80509;BME280;69838;52.602;13.434;2024-03-08T03:25:57;101669.97;;;-5.31;100.00
80509;BME280;69838;52.602;13.434;2024-03-08T03:26:45;101666.38;;;-5.34;100.00
80509;BME280;69838;52.602;13.434;2024-03-08T03:27:31;101674.16;;;-5.38;100.00
80509;BME280;69838;52.602;13.434;2024-03-08T03:28:17;101668.22;;;-5.30;100.00
80509;BME280;69838;52.602;13.434;2024-03-08T03:29:07;101667.34;;;-5.31;100.00
80509;BME280;69838;52.602;13.434;2024-03-08T03:29:53;101668.94;;;-5.36;100.00
80509;BME280;69838;52.602;13.434;2024-03-08T03:30:40;101665.31;;;-5.40;100.00
80509;BME280;69838;52.602;13.434;2024-03-08T03:31:26;101668.06;;;-5.35;100.00
80509;BME280;69838;52.602;13.434;2024-03-08T03:32:11;101665.53;;;-5.32;100.00
80509;BME280;69838;52.602;13.434;2024-03-08T03:32:58;101667.34;;;-5.31;100.00
80509;BME280;69838;52.602;13.434;2024-03-08T03:33:45;101669.00;;;-5.33;100.00
80509;BME280;69838;52.602;13.434;2024-03-08T03:34:32;101672.50;;;-5.34;100.00
80509;BME280;69838;52.602;13.434;2024-03-08T03:35:21;101666.38;;;-5.34;100.00
80509;BME280;69838;52.602;13.434;2024-03-08T03:36:06;101666.38;;;-5.34;100.00
80509;BME280;69838;52.602;13.434;2024-03-08T03:36:54;101662.75;;;-5.37;100.00
80509;BME280;69838;52.602;13.434;2024-03-08T03:37:40;101661.97;;;-5.34;100.00
80509;BME280;69838;52.602;13.434;2024-03-08T03:38:29;101664.66;;;-5.32;100.00
80509;BME280;69838;52.602;13.434;2024-03-08T03:39:15;101666.25;;;-5.38;100.00
80509;BME280;69838;52.602;13.434;2024-03-08T03:40:02;101666.97;;;-5.43;100.00
80509;BME280;69838;52.602;13.434;2024-03-08T03:40:47;101668.00;;;-5.38;100.00
80509;BME280;69838;52.602;13.434;2024-03-08T03:41:33;101658.31;;;-5.39;100.00
80509;BME280;69838;52.602;13.434;2024-03-08T03:42:20;101661.78;;;-5.40;100.00
80509;BME280;69838;52.602;13.434;2024-03-08T03:43:05;101661.78;;;-5.40;100.00
80509;BME280;69838;52.602;13.434;2024-03-08T03:43:51;101656.63;;;-5.37;100.00
80509;BME280;69838;52.602;13.434;2024-03-08T03:44:37;101667.25;;;-5.34;100.00
80509;BME280;69838;52.602;13.434;2024-03-08T03:45:23;101662.16;;;-5.28;100.00
80509;BME280;69838;52.602;13.434;2024-03-08T03:46:09;101657.84;;;-5.26;100.00
80509;BME280;69838;52.602;13.434;2024-03-08T03:46:55;101656.81;;;-5.31;100.00
80509;BME280;69838;52.602;13.434;2024-03-08T03:47:42;101656.72;;;-5.34;100.00
80509;BME280;69838;52.602;13.434;2024-03-08T03:48:28;101660.88;;;-5.41;100.00
80509;BME280;69838;52.602;13.434;2024-03-08T03:49:14;101664.28;;;-5.45;100.00
80509;BME280;69838;52.602;13.434;2024-03-08T03:49:59;101667.66;;;-5.49;100.00
80509;BME280;69838;52.602;13.434;2024-03-08T03:50:48;101658.81;;;-5.51;100.00
80509;BME280;69838;52.602;13.434;2024-03-08T03:51:35;101665.88;;;-5.50;100.00
80509;BME280;69838;52.602;13.434;2024-03-08T03:52:20;101658.13;;;-5.45;100.00
80509;BME280;69838;52.602;13.434;2024-03-08T03:53:07;101662.63;;;-5.41;100.00
80509;BME280;69838;52.602;13.434;2024-03-08T03:53:54;101658.03;;;-5.48;100.00
80509;BME280;69838;52.602;13.434;2024-03-08T03:54:42;101665.16;;;-5.44;100.00
80509;BME280;69838;52.602;13.434;2024-03-08T03:55:28;101668.50;;;-5.50;100.00
80509;BME280;69838;52.602;13.434;2024-03-08T03:56:14;101659.50;;;-5.57;100.00